sensor_id;sensor_type;location;lat;lon;timestamp;pressure;altitude;pressure_sealevel;temperature;humidity
44926;BME280;30662;51.210;7.656;2023-04-29T00:00:02;151308.94;;;10.04;100.00
44926;BME280;30662;51.210;7.656;2023-04-29T00:02:32;151311.47;;;10.05;100.00
44926;BME280;30662;51.210;7.656;2023-04-29T00:04:58;151334.28;;;10.14;100.00
44926;BME280;30662;51.210;7.656;2023-04-29T00:07:24;151315.31;;;10.07;100.00
44926;BME280;30662;51.210;7.656;2023-04-29T00:09:50;151336.81;;;10.15;100.00
44926;BME280;30662;51.210;7.656;2023-04-29T00:12:16;151330.44;;;10.13;100.00
44926;BME280;30662;51.210;7.656;2023-04-29T00:14:43;151336.81;;;10.15;100.00
44926;BME280;30662;51.210;7.656;2023-04-29T00:17:09;151329.19;;;10.12;100.00
44926;BME280;30662;51.210;7.656;2023-04-29T00:19:35;151307.69;;;10.04;100.00
44926;BME280;30662;51.210;7.656;2023-04-29T00:22:01;151317.84;;;10.08;100.00
44926;BME280;30662;51.210;7.656;2023-04-29T00:24:27;151326.66;;;10.11;100.00
44926;BME280;30662;51.210;7.656;2023-04-29T00:26:53;151336.81;;;10.15;100.00
44926;BME280;30662;51.210;7.656;2023-04-29T00:29:19;151335.53;;;10.15;100.00
44926;BME280;30662;51.210;7.656;2023-04-29T00:31:45;151360.88;;;10.25;100.00
44926;BME280;30662;51.210;7.656;2023-04-29T00:34:11;151317.84;;;10.08;100.00
44926;BME280;30662;51.210;7.656;2023-04-29T00:36:37;151308.94;;;10.04;100.00
44926;BME280;30662;51.210;7.656;2023-04-29T00:39:03;151297.59;;;10.00;100.00
44926;BME280;30662;51.210;7.656;2023-04-29T00:41:29;151259.59;;;9.84;100.00
44926;BME280;30662;51.210;7.656;2023-04-29T00:43:56;151248.22;;;9.80;100.00
44926;BME280;30662;51.210;7.656;2023-04-29T00:46:22;151235.56;;;9.75;100.00
44926;BME280;30662;51.210;7.656;2023-04-29T00:48:48;151230.50;;;9.73;100.00
44926;BME280;30662;51.210;7.656;2023-04-29T00:51:15;151202.66;;;9.61;100.00
44926;BME280;30662;51.210;7.656;2023-04-29T00:53:42;151216.59;;;9.67;100.00
44926;BME280;30662;51.210;7.656;2023-04-29T00:56:08;151167.25;;;9.47;100.00
44926;BME280;30662;51.210;7.656;2023-04-29T00:58:35;151131.81;;;9.33;100.00
44926;BME280;30662;51.210;7.656;2023-04-29T01:01:01;151124.25;;;9.30;100.00
44926;BME280;30662;51.210;7.656;2023-04-29T01:03:29;151133.09;;;9.33;100.00
44926;BME280;30662;51.210;7.656;2023-04-29T01:11:52;151102.75;;;9.21;100.00
44926;BME280;30662;51.210;7.656;2023-04-29T01:14:20;151101.50;;;9.21;100.00
44926;BME280;30662;51.210;7.656;2023-04-29T01:16:52;151106.53;;;9.23;100.00
44926;BME280;30662;51.210;7.656;2023-04-29T01:19:47;151085.06;;;9.14;100.00
44926;BME280;30662;51.210;7.656;2023-04-29T01:22:13;151090.09;;;9.16;100.00
44926;BME280;30662;51.210;7.656;2023-04-29T01:24:40;151086.31;;;9.15;100.00
44926;BME280;30662;51.210;7.656;2023-04-29T01:27:30;151109.06;;;9.24;100.00
44926;BME280;30662;51.210;7.656;2023-04-29T01:30:03;151121.72;;;9.29;100.00
44926;BME280;30662;51.210;7.656;2023-04-29T01:32:51;151120.47;;;9.28;100.00
44926;BME280;30662;51.210;7.656;2023-04-29T01:35:27;151124.25;;;9.30;100.00
44926;BME280;30662;51.210;7.656;2023-04-29T01:38:15;151115.38;;;9.26;100.00
44926;BME280;30662;51.210;7.656;2023-04-29T01:43:27;151125.50;;;9.30;100.00
44926;BME280;30662;51.210;7.656;2023-04-29T01:45:55;151112.84;;;9.25;100.00
44926;BME280;30662;51.210;7.656;2023-04-29T01:48:23;151126.78;;;9.31;100.00
44926;BME280;30662;51.210;7.656;2023-04-29T01:50:49;151102.75;;;9.21;100.00
44926;BME280;30662;51.210;7.656;2023-04-29T01:53:15;151098.94;;;9.20;100.00
44926;BME280;30662;51.210;7.656;2023-04-29T01:55:40;151096.41;;;9.19;100.00
44926;BME280;30662;51.210;7.656;2023-04-29T01:58:09;151069.88;;;9.08;100.00
44926;BME280;30662;51.210;7.656;2023-04-29T02:00:35;151071.13;;;9.08;100.00
44926;BME280;30662;51.210;7.656;2023-04-29T02:03:03;151077.44;;;9.11;100.00
44926;BME280;30662;51.210;7.656;2023-04-29T02:05:29;151068.63;;;9.07;100.00
44926;BME280;30662;51.210;7.656;2023-04-29T02:07:59;151053.44;;;9.01;100.00
44926;BME280;30662;51.210;7.656;2023-04-29T02:10:26;151045.88;;;8.98;100.00
44926;BME280;30662;51.210;7.656;2023-04-29T02:12:52;151034.47;;;8.94;100.00
44926;BME280;30662;51.210;7.656;2023-04-29T02:15:19;151031.94;;;8.93;100.00
44926;BME280;30662;51.210;7.656;2023-04-29T02:17:45;151023.06;;;8.89;100.00
44926;BME280;30662;51.210;7.656;2023-04-29T02:20:12;151050.91;;;9.00;100.00
44926;BME280;30662;51.210;7.656;2023-04-29T02:22:38;151029.44;;;8.92;100.00
44926;BME280;30662;51.210;7.656;2023-04-29T02:25:04;151002.84;;;8.81;100.00
44926;BME280;30662;51.210;7.656;2023-04-29T02:27:31;151001.59;;;8.80;100.00
44926;BME280;30662;51.210;7.656;2023-04-29T02:29:57;151001.59;;;8.80;100.00
44926;BME280;30662;51.210;7.656;2023-04-29T02:32:23;150985.16;;;8.74;100.00
44926;BME280;30662;51.210;7.656;2023-04-29T02:34:48;151004.09;;;8.81;100.00
44926;BME280;30662;51.210;7.656;2023-04-29T02:37:14;151019.28;;;8.88;100.00
44926;BME280;30662;51.210;7.656;2023-04-29T02:39:42;150995.28;;;8.78;100.00
44926;BME280;30662;51.210;7.656;2023-04-29T02:42:08;150985.16;;;8.74;100.00
44926;BME280;30662;51.210;7.656;2023-04-29T02:44:34;151002.84;;;8.81;100.00
44926;BME280;30662;51.210;7.656;2023-04-29T02:47:00;150994.03;;;8.77;100.00
44926;BME280;30662;51.210;7.656;2023-04-29T02:49:30;150971.22;;;8.68;100.00
44926;BME280;30662;51.210;7.656;2023-04-29T02:51:56;150991.50;;;8.76;100.00
44926;BME280;30662;51.210;7.656;2023-04-29T02:54:23;150992.75;;;8.77;100.00
44926;BME280;30662;51.210;7.656;2023-04-29T02:56:49;151010.47;;;8.84;100.00
44926;BME280;30662;51.210;7.656;2023-04-29T02:59:14;150992.75;;;8.77;100.00
44926;BME280;30662;51.210;7.656;2023-04-29T03:01:40;150981.38;;;8.72;100.00
44926;BME280;30662;51.210;7.656;2023-04-29T03:04:07;150967.44;;;8.67;100.00
44926;BME280;30662;51.210;7.656;2023-04-29T03:06:34;150952.28;;;8.61;100.00
44926;BME280;30662;51.210;7.656;2023-04-29T03:09:00;150947.22;;;8.59;100.00
44926;BME280;30662;51.210;7.656;2023-04-29T03:11:26;150921.97;;;8.48;100.00
44926;BME280;30662;51.210;7.656;2023-04-29T03:13:52;150930.78;;;8.52;100.00
44926;BME280;30662;51.210;7.656;2023-04-29T03:16:18;150910.56;;;8.44;100.00
44926;BME280;30662;51.210;7.656;2023-04-29T03:18:44;150900.44;;;8.40;100.00
44926;BME280;30662;51.210;7.656;2023-04-29T03:21:10;150919.44;;;8.47;100.00
44926;BME280;30662;51.210;7.656;2023-04-29T03:23:36;150916.88;;;8.46;100.00
44926;BME280;30662;51.210;7.656;2023-04-29T03:26:04;150957.38;;;8.63;100.00
44926;BME280;30662;51.210;7.656;2023-04-29T03:28:30;150938.41;;;8.55;100.00
44926;BME280;30662;51.210;7.656;2023-04-29T03:30:56;150925.75;;;8.50;100.00
44926;BME280;30662;51.210;7.656;2023-04-29T03:33:23;150901.75;;;8.40;100.00
44926;BME280;30662;51.210;7.656;2023-04-29T03:35:49;150916.88;;;8.46;100.00
44926;BME280;30662;51.210;7.656;2023-04-29T03:38:15;150928.28;;;8.51;100.00
44926;BME280;30662;51.210;7.656;2023-04-29T03:40:41;150932.06;;;8.52;100.00
44926;BME280;30662;51.210;7.656;2023-04-29T03:43:07;150930.78;;;8.52;100.00
44926;BME280;30662;51.210;7.656;2023-04-29T03:45:34;150921.97;;;8.48;100.00
44926;BME280;30662;51.210;7.656;2023-04-29T03:48:00;150908.06;;;8.43;100.00
44926;BME280;30662;51.210;7.656;2023-04-29T03:50:27;150952.28;;;8.61;100.00
44926;BME280;30662;51.210;7.656;2023-04-29T03:52:53;150933.31;;;8.53;100.00
44926;BME280;30662;51.210;7.656;2023-04-29T03:55:19;150909.31;;;8.43;100.00
44926;BME280;30662;51.210;7.656;2023-04-29T03:57:45;150934.56;;;8.53;100.00
44926;BME280;30662;51.210;7.656;2023-04-29T04:00:11;150911.84;;;8.44;100.00
44926;BME280;30662;51.210;7.656;2023-04-29T04:02:37;150908.06;;;8.43;100.00
44926;BME280;30662;51.210;7.656;2023-04-29T04:05:03;150908.06;;;8.43;100.00
44926;BME280;30662;51.210;7.656;2023-04-29T04:07:29;150890.34;;;8.36;100.00
44926;BME280;30662;51.210;7.656;2023-04-29T04:09:55;150876.41;;;8.30;100.00
44926;BME280;30662;51.210;7.656;2023-04-29T04:12:21;150856.19;;;8.22;100.00
44926;BME280;30662;51.210;7.656;2023-04-29T04:14:47;150857.44;;;8.22;100.00
44926;BME280;30662;51.210;7.656;2023-04-29T04:17:13;150854.91;;;8.21;100.00
44926;BME280;30662;51.210;7.656;2023-04-29T04:19:39;150838.47;;;8.15;100.00
44926;BME280;30662;51.210;7.656;2023-04-29T04:22:05;150844.78;;;8.17;100.00
44926;BME280;30662;51.210;7.656;2023-04-29T04:24:30;150820.78;;;8.08;100.00
44926;BME280;30662;51.210;7.656;2023-04-29T04:26:56;150824.56;;;8.09;100.00
44926;BME280;30662;51.210;7.656;2023-04-29T04:29:22;150824.56;;;8.09;100.00
44926;BME280;30662;51.210;7.656;2023-04-29T04:31:48;150822.06;;;8.08;100.00
44926;BME280;30662;51.210;7.656;2023-04-29T04:34:14;150830.94;;;8.12;100.00
44926;BME280;30662;51.210;7.656;2023-04-29T04:36:40;150847.31;;;8.18;100.00
44926;BME280;30662;51.210;7.656;2023-04-29T04:39:06;150835.97;;;8.14;100.00
44926;BME280;30662;51.210;7.656;2023-04-29T04:41:32;150861.22;;;8.24;100.00
44926;BME280;30662;51.210;7.656;2023-04-29T04:43:58;150881.44;;;8.32;100.00
44926;BME280;30662;51.210;7.656;2023-04-29T04:46:24;150880.19;;;8.32;100.00
44926;BME280;30662;51.210;7.656;2023-04-29T04:48:50;150858.69;;;8.23;100.00
44926;BME280;30662;51.210;7.656;2023-04-29T04:51:16;150851.13;;;8.20;100.00
44926;BME280;30662;51.210;7.656;2023-04-29T04:53:42;150834.72;;;8.13;100.00
44926;BME280;30662;51.210;7.656;2023-04-29T04:56:08;150833.44;;;8.13;100.00
44926;BME280;30662;51.210;7.656;2023-04-29T04:58:33;150880.19;;;8.32;100.00
44926;BME280;30662;51.210;7.656;2023-04-29T05:00:59;150843.53;;;8.17;100.00
44926;BME280;30662;51.210;7.656;2023-04-29T05:03:25;150853.66;;;8.21;100.00
44926;BME280;30662;51.210;7.656;2023-04-29T05:05:59;150843.53;;;8.17;100.00
44926;BME280;30662;51.210;7.656;2023-04-29T05:08:25;150846.06;;;8.18;100.00
44926;BME280;30662;51.210;7.656;2023-04-29T05:10:51;150837.22;;;8.14;100.00
44926;BME280;30662;51.210;7.656;2023-04-29T05:13:19;150822.06;;;8.08;100.00
44926;BME280;30662;51.210;7.656;2023-04-29T05:15:45;150833.44;;;8.13;100.00
44926;BME280;30662;51.210;7.656;2023-04-29T05:18:11;150843.53;;;8.17;100.00
44926;BME280;30662;51.210;7.656;2023-04-29T05:20:37;150856.19;;;8.22;100.00
44926;BME280;30662;51.210;7.656;2023-04-29T05:23:03;150810.66;;;8.03;100.00
44926;BME280;30662;51.210;7.656;2023-04-29T05:25:29;150827.09;;;8.10;100.00
44926;BME280;30662;51.210;7.656;2023-04-29T05:27:55;150827.09;;;8.10;100.00
44926;BME280;30662;51.210;7.656;2023-04-29T05:30:20;150839.75;;;8.15;100.00
44926;BME280;30662;51.210;7.656;2023-04-29T05:32:46;150846.06;;;8.18;100.00
44926;BME280;30662;51.210;7.656;2023-04-29T05:35:14;150853.66;;;8.21;100.00
44926;BME280;30662;51.210;7.656;2023-04-29T05:37:40;150842.28;;;8.16;100.00
44926;BME280;30662;51.210;7.656;2023-04-29T05:40:06;150824.56;;;8.09;100.00
44926;BME280;30662;51.210;7.656;2023-04-29T05:42:32;150839.75;;;8.15;100.00
44926;BME280;30662;51.210;7.656;2023-04-29T05:44:58;150818.28;;;8.07;100.00
44926;BME280;30662;51.210;7.656;2023-04-29T05:47:24;150825.84;;;8.10;100.00
44926;BME280;30662;51.210;7.656;2023-04-29T05:49:50;150857.44;;;8.22;100.00
44926;BME280;30662;51.210;7.656;2023-04-29T05:52:16;150823.31;;;8.09;100.00
44926;BME280;30662;51.210;7.656;2023-04-29T05:54:42;150832.19;;;8.12;100.00
44926;BME280;30662;51.210;7.656;2023-04-29T05:57:08;150820.78;;;8.08;100.00
44926;BME280;30662;51.210;7.656;2023-04-29T05:59:34;150803.09;;;8.00;100.00
44926;BME280;30662;51.210;7.656;2023-04-29T06:02:00;150808.16;;;8.02;100.00
44926;BME280;30662;51.210;7.656;2023-04-29T06:04:26;150811.97;;;8.04;100.00
44926;BME280;30662;51.210;7.656;2023-04-29T06:06:53;150838.47;;;8.15;100.00
44926;BME280;30662;51.210;7.656;2023-04-29T06:09:21;150859.97;;;8.23;100.00
44926;BME280;30662;51.210;7.656;2023-04-29T06:11:53;150834.72;;;8.13;100.00
44926;BME280;30662;51.210;7.656;2023-04-29T06:14:19;150800.59;;;7.99;100.00
44926;BME280;30662;51.210;7.656;2023-04-29T06:16:45;150822.06;;;8.08;100.00
44926;BME280;30662;51.210;7.656;2023-04-29T06:19:11;150823.31;;;8.09;100.00
44926;BME280;30662;51.210;7.656;2023-04-29T06:21:37;150822.06;;;8.08;100.00
44926;BME280;30662;51.210;7.656;2023-04-29T06:24:03;150820.78;;;8.08;100.00
44926;BME280;30662;51.210;7.656;2023-04-29T06:26:29;150851.13;;;8.20;100.00
44926;BME280;30662;51.210;7.656;2023-04-29T06:28:55;150842.28;;;8.16;100.00
44926;BME280;30662;51.210;7.656;2023-04-29T06:31:21;150828.34;;;8.11;100.00
44926;BME280;30662;51.210;7.656;2023-04-29T06:33:48;150809.41;;;8.03;100.00
44926;BME280;30662;51.210;7.656;2023-04-29T06:36:14;150815.75;;;8.06;100.00
44926;BME280;30662;51.210;7.656;2023-04-29T06:38:40;150843.53;;;8.17;100.00
44926;BME280;30662;51.210;7.656;2023-04-29T06:41:06;150798.06;;;7.98;100.00
44926;BME280;30662;51.210;7.656;2023-04-29T06:43:32;150777.84;;;7.90;100.00
44926;BME280;30662;51.210;7.656;2023-04-29T06:45:58;150777.84;;;7.90;100.00
44926;BME280;30662;51.210;7.656;2023-04-29T06:48:24;150790.47;;;7.95;100.00
44926;BME280;30662;51.210;7.656;2023-04-29T06:50:53;150785.41;;;7.93;100.00
44926;BME280;30662;51.210;7.656;2023-04-29T06:53:20;150785.41;;;7.93;100.00
44926;BME280;30662;51.210;7.656;2023-04-29T06:55:46;150789.19;;;7.95;100.00
44926;BME280;30662;51.210;7.656;2023-04-29T06:58:13;150785.41;;;7.93;100.00
44926;BME280;30662;51.210;7.656;2023-04-29T07:00:39;150801.84;;;8.00;100.00
44926;BME280;30662;51.210;7.656;2023-04-29T07:03:05;150811.97;;;8.04;100.00
44926;BME280;30662;51.210;7.656;2023-04-29T07:05:31;150806.88;;;8.02;100.00
44926;BME280;30662;51.210;7.656;2023-04-29T07:07:57;150808.16;;;8.02;100.00
44926;BME280;30662;51.210;7.656;2023-04-29T07:10:23;150811.97;;;8.04;100.00
44926;BME280;30662;51.210;7.656;2023-04-29T07:12:51;150798.06;;;7.98;100.00
44926;BME280;30662;51.210;7.656;2023-04-29T07:15:16;150785.41;;;7.93;100.00
44926;BME280;30662;51.210;7.656;2023-04-29T07:17:42;150804.38;;;8.01;100.00
44926;BME280;30662;51.210;7.656;2023-04-29T07:20:09;150791.72;;;7.96;100.00
44926;BME280;30662;51.210;7.656;2023-04-29T07:22:34;150795.53;;;7.97;100.00
44926;BME280;30662;51.210;7.656;2023-04-29T07:25:00;150825.84;;;8.10;100.00
44926;BME280;30662;51.210;7.656;2023-04-29T07:27:26;150823.31;;;8.09;100.00
44926;BME280;30662;51.210;7.656;2023-04-29T07:29:53;150795.53;;;7.97;100.00
44926;BME280;30662;51.210;7.656;2023-04-29T07:32:19;150810.66;;;8.03;100.00
44926;BME280;30662;51.210;7.656;2023-04-29T07:34:45;150800.59;;;7.99;100.00
44926;BME280;30662;51.210;7.656;2023-04-29T07:37:12;150791.72;;;7.96;100.00
44926;BME280;30662;51.210;7.656;2023-04-29T07:39:38;150784.16;;;7.93;100.00
44926;BME280;30662;51.210;7.656;2023-04-29T07:42:04;150781.63;;;7.92;100.00
44926;BME280;30662;51.210;7.656;2023-04-29T07:44:30;150790.47;;;7.95;100.00
44926;BME280;30662;51.210;7.656;2023-04-29T07:46:56;150806.88;;;8.02;100.00
44926;BME280;30662;51.210;7.656;2023-04-29T07:49:22;150837.22;;;8.14;100.00
44926;BME280;30662;51.210;7.656;2023-04-29T07:51:47;150827.09;;;8.10;100.00
44926;BME280;30662;51.210;7.656;2023-04-29T07:54:14;150881.44;;;8.32;100.00
44926;BME280;30662;51.210;7.656;2023-04-29T07:56:41;150923.22;;;8.49;100.00
44926;BME280;30662;51.210;7.656;2023-04-29T07:59:07;150954.78;;;8.62;100.00
44926;BME280;30662;51.210;7.656;2023-04-29T08:01:33;150940.91;;;8.56;100.00
44926;BME280;30662;51.210;7.656;2023-04-29T08:03:58;150919.44;;;8.47;100.00
44926;BME280;30662;51.210;7.656;2023-04-29T08:06:25;150942.19;;;8.56;100.00
44926;BME280;30662;51.210;7.656;2023-04-29T08:08:51;150925.75;;;8.50;100.00
44926;BME280;30662;51.210;7.656;2023-04-29T08:11:19;150904.28;;;8.41;100.00
44926;BME280;30662;51.210;7.656;2023-04-29T08:13:46;150901.75;;;8.40;100.00
44926;BME280;30662;51.210;7.656;2023-04-29T08:16:12;150901.75;;;8.40;100.00
44926;BME280;30662;51.210;7.656;2023-04-29T08:18:39;150878.91;;;8.31;100.00
44926;BME280;30662;51.210;7.656;2023-04-29T08:21:05;150824.56;;;8.09;100.00
44926;BME280;30662;51.210;7.656;2023-04-29T08:23:31;150828.34;;;8.11;100.00
44926;BME280;30662;51.210;7.656;2023-04-29T08:25:57;150815.75;;;8.06;100.00
44926;BME280;30662;51.210;7.656;2023-04-29T08:28:23;150839.75;;;8.15;100.00
44926;BME280;30662;51.210;7.656;2023-04-29T08:30:50;150853.66;;;8.21;100.00
44926;BME280;30662;51.210;7.656;2023-04-29T08:33:15;150862.47;;;8.24;100.00
44926;BME280;30662;51.210;7.656;2023-04-29T08:35:41;150849.88;;;8.19;100.00
44926;BME280;30662;51.210;7.656;2023-04-29T08:38:08;150822.06;;;8.08;100.00
44926;BME280;30662;51.210;7.656;2023-04-29T08:40:42;150867.56;;;8.26;100.00
44926;BME280;30662;51.210;7.656;2023-04-29T08:43:10;150862.47;;;8.24;100.00
44926;BME280;30662;51.210;7.656;2023-04-29T08:45:38;150839.75;;;8.15;100.00
44926;BME280;30662;51.210;7.656;2023-04-29T08:48:06;150839.75;;;8.15;100.00
44926;BME280;30662;51.210;7.656;2023-04-29T08:50:36;150839.75;;;8.15;100.00
44926;BME280;30662;51.210;7.656;2023-04-29T08:53:04;150835.97;;;8.14;100.00
44926;BME280;30662;51.210;7.656;2023-04-29T08:55:41;150854.91;;;8.21;100.00
44926;BME280;30662;51.210;7.656;2023-04-29T08:58:08;150877.66;;;8.30;100.00
44926;BME280;30662;51.210;7.656;2023-04-29T09:00:35;150867.56;;;8.26;100.00
44926;BME280;30662;51.210;7.656;2023-04-29T09:03:13;150886.53;;;8.34;100.00
44926;BME280;30662;51.210;7.656;2023-04-29T09:05:47;150884.00;;;8.33;100.00
44926;BME280;30662;51.210;7.656;2023-04-29T09:08:14;150876.41;;;8.30;100.00
44926;BME280;30662;51.210;7.656;2023-04-29T09:10:41;150877.66;;;8.30;100.00
44926;BME280;30662;51.210;7.656;2023-04-29T09:13:08;150839.75;;;8.15;100.00
44926;BME280;30662;51.210;7.656;2023-04-29T09:15:35;150849.88;;;8.19;100.00
44926;BME280;30662;51.210;7.656;2023-04-29T09:18:02;150856.19;;;8.22;100.00
44926;BME280;30662;51.210;7.656;2023-04-29T09:20:29;150897.91;;;8.39;100.00
44926;BME280;30662;51.210;7.656;2023-04-29T09:23:00;150900.44;;;8.40;100.00
44926;BME280;30662;51.210;7.656;2023-04-29T09:25:27;150906.78;;;8.42;100.00
44926;BME280;30662;51.210;7.656;2023-04-29T09:27:53;150914.34;;;8.45;100.00
44926;BME280;30662;51.210;7.656;2023-04-29T09:30:20;150940.91;;;8.56;100.00
44926;BME280;30662;51.210;7.656;2023-04-29T09:33:22;150980.09;;;8.72;100.00
44926;BME280;30662;51.210;7.656;2023-04-29T09:35:50;150961.16;;;8.64;100.00
44926;BME280;30662;51.210;7.656;2023-04-29T09:38:16;150933.31;;;8.53;100.00
44926;BME280;30662;51.210;7.656;2023-04-29T09:40:43;150945.97;;;8.58;100.00
44926;BME280;30662;51.210;7.656;2023-04-29T09:43:25;150894.13;;;8.37;100.00
44926;BME280;30662;51.210;7.656;2023-04-29T09:45:51;150923.22;;;8.49;100.00
44926;BME280;30662;51.210;7.656;2023-04-29T09:48:17;150904.28;;;8.41;100.00
44926;BME280;30662;51.210;7.656;2023-04-29T09:50:43;150894.13;;;8.37;100.00
44926;BME280;30662;51.210;7.656;2023-04-29T09:53:27;150915.63;;;8.46;100.00
44926;BME280;30662;51.210;7.656;2023-04-29T09:58:30;150884.00;;;8.33;100.00
44926;BME280;30662;51.210;7.656;2023-04-29T10:00:58;150878.91;;;8.31;100.00
44926;BME280;30662;51.210;7.656;2023-04-29T10:03:37;150872.63;;;8.28;100.00
44926;BME280;30662;51.210;7.656;2023-04-29T10:06:05;150885.25;;;8.34;100.00
44926;BME280;30662;51.210;7.656;2023-04-29T10:08:33;150876.41;;;8.30;100.00
44926;BME280;30662;51.210;7.656;2023-04-29T10:11:03;150894.13;;;8.37;100.00
44926;BME280;30662;51.210;7.656;2023-04-29T10:13:29;150866.31;;;8.26;100.00
44926;BME280;30662;51.210;7.656;2023-04-29T10:16:10;150892.88;;;8.37;100.00
44926;BME280;30662;51.210;7.656;2023-04-29T10:18:40;150918.13;;;8.47;100.00
44926;BME280;30662;51.210;7.656;2023-04-29T10:21:07;150919.44;;;8.47;100.00
44926;BME280;30662;51.210;7.656;2023-04-29T10:23:36;150903.00;;;8.41;100.00
44926;BME280;30662;51.210;7.656;2023-04-29T10:26:02;150928.28;;;8.51;100.00
44926;BME280;30662;51.210;7.656;2023-04-29T10:28:31;150934.56;;;8.53;100.00
44926;BME280;30662;51.210;7.656;2023-04-29T10:31:01;150925.75;;;8.50;100.00
44926;BME280;30662;51.210;7.656;2023-04-29T10:33:31;150905.53;;;8.42;100.00
44926;BME280;30662;51.210;7.656;2023-04-29T10:36:00;150877.66;;;8.30;100.00
44926;BME280;30662;51.210;7.656;2023-04-29T10:38:36;150857.44;;;8.22;100.00
44926;BME280;30662;51.210;7.656;2023-04-29T10:41:16;150891.63;;;8.36;100.00
44926;BME280;30662;51.210;7.656;2023-04-29T10:43:44;150909.31;;;8.43;100.00
44926;BME280;30662;51.210;7.656;2023-04-29T10:46:22;150932.06;;;8.52;100.00
44926;BME280;30662;51.210;7.656;2023-04-29T10:48:50;150951.00;;;8.60;100.00
44926;BME280;30662;51.210;7.656;2023-04-29T10:56:39;150924.50;;;8.49;100.00
44926;BME280;30662;51.210;7.656;2023-04-29T10:59:09;150948.50;;;8.59;100.00
44926;BME280;30662;51.210;7.656;2023-04-29T11:01:41;150937.09;;;8.54;100.00
44926;BME280;30662;51.210;7.656;2023-04-29T11:04:08;150934.56;;;8.53;100.00
44926;BME280;30662;51.210;7.656;2023-04-29T11:11:46;150982.63;;;8.73;100.00
44926;BME280;30662;51.210;7.656;2023-04-29T11:14:14;150948.50;;;8.59;100.00
44926;BME280;30662;51.210;7.656;2023-04-29T11:16:50;150942.19;;;8.56;100.00
44926;BME280;30662;51.210;7.656;2023-04-29T11:19:16;150966.19;;;8.66;100.00
44926;BME280;30662;51.210;7.656;2023-04-29T11:21:44;150988.94;;;8.75;100.00
44926;BME280;30662;51.210;7.656;2023-04-29T11:24:12;150947.22;;;8.59;100.00
44926;BME280;30662;51.210;7.656;2023-04-29T11:26:40;150969.97;;;8.68;100.00
44926;BME280;30662;51.210;7.656;2023-04-29T11:29:07;150987.66;;;8.75;100.00
44926;BME280;30662;51.210;7.656;2023-04-29T11:31:36;150987.66;;;8.75;100.00
44926;BME280;30662;51.210;7.656;2023-04-29T11:34:04;151019.28;;;8.88;100.00
44926;BME280;30662;51.210;7.656;2023-04-29T11:36:32;151048.38;;;8.99;100.00
44926;BME280;30662;51.210;7.656;2023-04-29T11:39:02;151110.34;;;9.24;100.00
44926;BME280;30662;51.210;7.656;2023-04-29T11:41:28;151214.06;;;9.66;100.00
44926;BME280;30662;51.210;7.656;2023-04-29T11:43:55;151298.84;;;10.00;100.00
44926;BME280;30662;51.210;7.656;2023-04-29T11:46:24;151372.28;;;10.30;100.00
44926;BME280;30662;51.210;7.656;2023-04-29T11:48:53;151436.81;;;10.56;100.00
44926;BME280;30662;51.210;7.656;2023-04-29T11:51:19;151444.44;;;10.59;100.00
44926;BME280;30662;51.210;7.656;2023-04-29T11:53:45;151410.25;;;10.45;100.00
44926;BME280;30662;51.210;7.656;2023-04-29T11:56:12;151431.78;;;10.54;100.00
44926;BME280;30662;51.210;7.656;2023-04-29T11:58:38;151338.06;;;10.16;100.00
44926;BME280;30662;51.210;7.656;2023-04-29T12:01:04;151269.72;;;9.88;100.00
44926;BME280;30662;51.210;7.656;2023-04-29T12:03:32;151230.50;;;9.73;100.00
44926;BME280;30662;51.210;7.656;2023-04-29T12:06:00;151207.75;;;9.63;100.00
44926;BME280;30662;51.210;7.656;2023-04-29T12:08:28;151206.44;;;9.63;100.00
44926;BME280;30662;51.210;7.656;2023-04-29T12:10:58;151205.19;;;9.62;100.00
44926;BME280;30662;51.210;7.656;2023-04-29T12:13:28;151200.13;;;9.60;100.00
44926;BME280;30662;51.210;7.656;2023-04-29T12:15:56;151182.44;;;9.53;100.00
44926;BME280;30662;51.210;7.656;2023-04-29T12:18:23;151190.03;;;9.56;100.00
44926;BME280;30662;51.210;7.656;2023-04-29T12:20:49;151190.03;;;9.56;100.00
44926;BME280;30662;51.210;7.656;2023-04-29T12:23:24;151224.16;;;9.70;100.00
44926;BME280;30662;51.210;7.656;2023-04-29T12:25:59;151268.47;;;9.88;100.00
44926;BME280;30662;51.210;7.656;2023-04-29T12:28:26;151336.81;;;10.15;100.00
44926;BME280;30662;51.210;7.656;2023-04-29T12:30:53;151317.84;;;10.08;100.00
44926;BME280;30662;51.210;7.656;2023-04-29T12:33:24;151363.41;;;10.26;100.00
44926;BME280;30662;51.210;7.656;2023-04-29T12:35:53;151381.13;;;10.33;100.00
44926;BME280;30662;51.210;7.656;2023-04-29T12:38:24;151381.13;;;10.33;100.00
44926;BME280;30662;51.210;7.656;2023-04-29T12:41:00;151317.84;;;10.08;100.00
44926;BME280;30662;51.210;7.656;2023-04-29T12:43:32;151354.56;;;10.23;100.00
44926;BME280;30662;51.210;7.656;2023-04-29T12:46:02;151320.34;;;10.09;100.00
44926;BME280;30662;51.210;7.656;2023-04-29T12:48:29;151326.66;;;10.11;100.00
44926;BME280;30662;51.210;7.656;2023-04-29T12:51:00;151292.50;;;9.98;100.00
44926;BME280;30662;51.210;7.656;2023-04-29T12:53:28;151272.25;;;9.89;100.00
44926;BME280;30662;51.210;7.656;2023-04-29T12:55:55;151253.28;;;9.82;100.00
44926;BME280;30662;51.210;7.656;2023-04-29T12:58:21;151245.69;;;9.79;100.00
44926;BME280;30662;51.210;7.656;2023-04-29T13:00:48;151214.06;;;9.66;100.00
44926;BME280;30662;51.210;7.656;2023-04-29T13:03:14;151191.31;;;9.57;100.00
44926;BME280;30662;51.210;7.656;2023-04-29T13:05:41;151209.03;;;9.64;100.00
44926;BME280;30662;51.210;7.656;2023-04-29T13:08:07;151238.09;;;9.76;100.00
44926;BME280;30662;51.210;7.656;2023-04-29T13:10:34;151282.41;;;9.93;100.00